createdAt,value
2019-03-26T00:01:48.451Z,79695.27
2019-03-26T00:04:18.884Z,79682.13
2019-03-26T00:06:48.736Z,79686.17
2019-03-26T00:09:20.746Z,79685.16
2019-03-26T00:11:50.569Z,79683.14
2019-03-26T00:14:20.554Z,79678.09
2019-03-26T00:16:50.328Z,79685.16
2019-03-26T00:19:20.420Z,79666.97
2019-03-26T00:21:50.219Z,79673.03
2019-03-26T00:24:20.218Z,79681.13
2019-03-26T00:26:49.932Z,79678.09
2019-03-26T00:29:19.986Z,79683.14
2019-03-26T00:31:50.079Z,79699.31
2019-03-26T00:34:21.377Z,79711.45
2019-03-26T00:36:51.851Z,79684.16
2019-03-26T00:39:21.541Z,79672.02
2019-03-26T00:41:51.380Z,79699.31
2019-03-26T00:44:21.491Z,79684.16
2019-03-26T00:46:54.322Z,79682.13
2019-03-26T00:49:24.085Z,79667.98
2019-03-26T00:51:53.881Z,79678.09
2019-03-26T00:54:23.867Z,79685.16
2019-03-26T00:56:53.665Z,79678.09
2019-03-26T00:59:23.761Z,79680.11
2019-03-26T01:01:53.647Z,79679.10
2019-03-26T01:04:32.664Z,79681.13
2019-03-26T01:06:54.833Z,79694.27
2019-03-26T01:09:24.603Z,79697.30
2019-03-26T01:11:54.701Z,79685.16
2019-03-26T01:14:24.433Z,79674.05
2019-03-26T01:16:54.140Z,79664.95
2019-03-26T01:19:24.540Z,79677.08
2019-03-26T01:21:54.347Z,79665.95
2019-03-26T01:24:24.059Z,79673.03
2019-03-26T01:26:54.190Z,79683.14
2019-03-26T01:29:25.056Z,79686.17
2019-03-26T01:31:54.807Z,79684.16
2019-03-26T01:34:25.268Z,79676.06
2019-03-26T01:36:56.599Z,79692.24
2019-03-26T01:39:26.401Z,79691.23
2019-03-26T01:41:56.170Z,79699.31
2019-03-26T01:44:26.240Z,79682.13
2019-03-26T01:46:57.831Z,79683.14
2019-03-26T01:49:27.579Z,79687.19
2019-03-26T01:51:57.325Z,79700.33
2019-03-26T01:54:27.058Z,79701.34
2019-03-26T01:56:57.164Z,79709.42
2019-03-26T01:59:26.856Z,79702.34
2019-03-26T02:01:56.600Z,79690.22
2019-03-26T02:04:26.693Z,79696.28
2019-03-26T02:06:56.834Z,79692.24
2019-03-26T02:09:26.931Z,79691.23
2019-03-26T02:11:57.083Z,79699.31
2019-03-26T02:14:26.815Z,79693.25
2019-03-26T02:16:56.559Z,79702.34
2019-03-26T02:19:26.368Z,79735.70
2019-03-26T02:21:56.078Z,79760.98
2019-03-26T02:24:25.841Z,79763.00
2019-03-26T02:26:55.701Z,79763.00
2019-03-26T02:29:28.631Z,79764.01
2019-03-26T02:31:58.373Z,79757.94
2019-03-26T02:34:28.446Z,79754.91
2019-03-26T02:36:58.232Z,79746.83
2019-03-26T02:39:28.273Z,79738.73
2019-03-26T02:41:58.018Z,79763.00
2019-03-26T02:44:28.413Z,79741.77
2019-03-26T02:46:58.214Z,79738.73
2019-03-26T02:49:28.402Z,79747.84
2019-03-26T02:51:58.133Z,79738.73
2019-03-26T02:54:28.181Z,79743.80
2019-03-26T02:57:00.797Z,79761.98
2019-03-26T02:59:31.417Z,79757.94
2019-03-26T03:02:03.285Z,79742.78
2019-03-26T03:04:33.049Z,79765.02
2019-03-26T03:07:03.503Z,79763.00
2019-03-26T03:09:33.591Z,79782.20
2019-03-26T03:12:03.344Z,79770.08
2019-03-26T03:14:33.523Z,79775.13
2019-03-26T03:17:03.607Z,79781.19
2019-03-26T03:19:35.435Z,79775.13
2019-03-26T03:22:05.353Z,79771.08
2019-03-26T03:24:35.378Z,79763.00
2019-03-26T03:27:05.113Z,79758.95
2019-03-26T03:29:35.299Z,79760.98
2019-03-26T03:32:06.448Z,79759.97
2019-03-26T03:34:36.376Z,79745.81
2019-03-26T03:37:06.067Z,79755.92
2019-03-26T03:39:36.164Z,79759.97
2019-03-26T03:42:06.088Z,79763.00
2019-03-26T03:44:36.533Z,79761.98
2019-03-26T03:47:06.794Z,79764.01
2019-03-26T03:49:36.501Z,79764.01
2019-03-26T03:52:06.768Z,79777.15
2019-03-26T03:54:37.922Z,79776.14
2019-03-26T03:57:07.826Z,79789.28
2019-03-26T03:59:38.277Z,79785.23
2019-03-26T04:02:08.020Z,79783.22
2019-03-26T04:04:38.418Z,79767.05
2019-03-26T04:07:08.550Z,79779.17
2019-03-26T04:09:38.273Z,79786.25
2019-03-26T04:12:08.403Z,79786.25
2019-03-26T04:14:38.497Z,79788.27
2019-03-26T04:17:08.251Z,79789.28
2019-03-26T04:19:38.429Z,79782.20
2019-03-26T04:22:08.251Z,79776.14
2019-03-26T04:24:38.417Z,79766.03
2019-03-26T04:27:08.246Z,79756.94
2019-03-26T04:29:38.027Z,79760.98
2019-03-26T04:32:07.791Z,79766.03
2019-03-26T04:34:37.490Z,79755.92
2019-03-26T04:37:07.293Z,79765.02
2019-03-26T04:39:37.033Z,79772.09
2019-03-26T04:42:07.184Z,79768.05
2019-03-26T04:44:37.825Z,79771.08
2019-03-26T04:47:07.558Z,79765.02
2019-03-26T04:49:37.578Z,79764.01
2019-03-26T04:52:07.310Z,79771.08
2019-03-26T04:54:36.999Z,79782.20
2019-03-26T04:57:06.956Z,79782.20
2019-03-26T04:59:36.951Z,79784.22
2019-03-26T05:02:07.022Z,79779.17
2019-03-26T05:04:36.812Z,79781.19
2019-03-26T05:07:06.849Z,79786.25
2019-03-26T05:09:36.617Z,79784.22
2019-03-26T05:12:06.560Z,79779.17
2019-03-26T05:14:36.430Z,79782.20
2019-03-26T05:17:06.119Z,79776.14
2019-03-26T05:19:36.099Z,79774.12
2019-03-26T05:22:06.254Z,79778.16
2019-03-26T05:24:36.495Z,79779.17
2019-03-26T05:27:07.558Z,79783.22
2019-03-26T05:29:37.271Z,79788.27
2019-03-26T05:32:06.981Z,79799.39
2019-03-26T05:34:36.891Z,79814.55
2019-03-26T05:37:06.610Z,79817.58
2019-03-26T05:39:37.150Z,79813.54
2019-03-26T05:42:06.881Z,79811.52
2019-03-26T05:44:36.772Z,79803.43
2019-03-26T05:47:06.845Z,79793.33
2019-03-26T05:49:36.573Z,79801.41
2019-03-26T05:52:06.643Z,79806.47
2019-03-26T05:54:36.400Z,79806.47
2019-03-26T05:57:06.612Z,79783.22
2019-03-26T05:59:36.311Z,79772.09
2019-03-26T06:02:14.291Z,79766.03
2019-03-26T06:04:38.285Z,79770.08
2019-03-26T06:07:07.985Z,79768.05
2019-03-26T06:09:38.139Z,79765.02
2019-03-26T06:12:07.831Z,79755.92
2019-03-26T06:14:37.607Z,79744.80
2019-03-26T06:17:07.354Z,79728.63
2019-03-26T06:19:37.061Z,79727.63
2019-03-26T06:22:06.812Z,79721.55
2019-03-26T06:24:36.814Z,79711.45
2019-03-26T06:27:06.575Z,79704.38
2019-03-26T06:29:36.294Z,79683.14
2019-03-26T06:32:06.026Z,79682.13
2019-03-26T06:34:36.577Z,79659.89
2019-03-26T06:37:17.677Z,79639.67
2019-03-26T06:39:41.811Z,79619.46
2019-03-26T06:42:11.541Z,79612.39
2019-03-26T06:44:41.277Z,79600.26
2019-03-26T06:47:11.021Z,79587.12
2019-03-26T06:49:41.150Z,79561.84
2019-03-26T06:52:10.892Z,79576.00
2019-03-26T06:54:40.600Z,79578.02
2019-03-26T06:57:10.966Z,79601.27
2019-03-26T06:59:40.694Z,79574.98
2019-03-26T07:02:10.451Z,79569.94
2019-03-26T07:04:46.870Z,79547.70
2019-03-26T07:07:30.540Z,79563.87
2019-03-26T07:09:48.727Z,79533.55
2019-03-26T07:12:18.449Z,79517.38
2019-03-26T07:14:48.519Z,79522.42
2019-03-26T07:17:18.388Z,79533.55
2019-03-26T07:19:49.110Z,79510.30
2019-03-26T07:22:20.030Z,79498.17
2019-03-26T07:24:50.648Z,79473.91
2019-03-26T07:27:20.372Z,79428.42
2019-03-26T07:29:50.082Z,79418.31
2019-03-26T07:32:19.864Z,79402.15
2019-03-26T07:34:49.604Z,79422.36
2019-03-26T07:37:19.597Z,79392.04
2019-03-26T07:39:49.512Z,79386.98
2019-03-26T07:42:19.252Z,79408.21
2019-03-26T07:44:48.979Z,79308.15
2019-03-26T07:47:18.733Z,79310.17
2019-03-26T07:49:48.449Z,79401.14
2019-03-26T07:52:18.170Z,79405.18
2019-03-26T07:54:49.382Z,79373.84
2019-03-26T07:57:19.106Z,79336.45
2019-03-26T07:59:49.390Z,79300.06
2019-03-26T08:02:19.095Z,79380.92
2019-03-26T08:04:49.232Z,79425.39
2019-03-26T08:07:18.979Z,79420.34
2019-03-26T08:09:48.743Z,79452.69
2019-03-26T08:12:19.577Z,79470.88
2019-03-26T08:14:49.715Z,79461.78
2019-03-26T08:17:19.456Z,79467.84
2019-03-26T08:19:49.147Z,79480.98
2019-03-26T08:22:19.291Z,79457.73
2019-03-26T08:24:49.189Z,79446.62
2019-03-26T08:27:18.898Z,79453.70
2019-03-26T08:29:48.644Z,79462.80
2019-03-26T08:32:18.381Z,79461.78
2019-03-26T08:34:48.121Z,79386.98
2019-03-26T08:37:17.963Z,79388.00
2019-03-26T08:39:47.700Z,79424.38
2019-03-26T08:42:17.755Z,79414.28
2019-03-26T08:44:47.500Z,79406.19
2019-03-26T08:47:17.995Z,79354.64
2019-03-26T08:49:47.763Z,79352.63
2019-03-26T08:52:17.961Z,79304.11
2019-03-26T08:54:48.064Z,79287.94
2019-03-26T08:57:17.796Z,79290.97
2019-03-26T08:59:48.825Z,79274.80
2019-03-26T09:02:18.791Z,79306.13
2019-03-26T09:04:48.946Z,79329.38
2019-03-26T09:07:19.141Z,79317.25
2019-03-26T09:09:48.912Z,79327.35
2019-03-26T09:12:18.974Z,79306.13
2019-03-26T09:14:48.708Z,79365.77
2019-03-26T09:17:19.975Z,79398.10
2019-03-26T09:19:51.011Z,79391.03
2019-03-26T09:22:22.631Z,79388.00
2019-03-26T09:24:52.394Z,79435.50
2019-03-26T09:27:22.452Z,79465.83
2019-03-26T09:29:52.198Z,79460.77
2019-03-26T09:32:24.572Z,79456.73
2019-03-26T09:34:54.678Z,79441.56
2019-03-26T09:37:24.379Z,79440.55
2019-03-26T09:39:54.071Z,79399.11
2019-03-26T09:42:23.991Z,79375.87
2019-03-26T09:44:56.585Z,79421.35
2019-03-26T09:47:25.614Z,79415.28
2019-03-26T09:49:55.690Z,79408.21
2019-03-26T09:52:25.422Z,79440.55
2019-03-26T09:54:55.290Z,79493.11
2019-03-26T09:57:26.198Z,79506.25
2019-03-26T09:59:56.344Z,79501.20
2019-03-26T10:02:26.064Z,79544.66
2019-03-26T10:04:57.324Z,79552.75
2019-03-26T10:07:27.221Z,79574.98
2019-03-26T10:09:58.805Z,79574.98
2019-03-26T10:12:28.967Z,79556.80
2019-03-26T10:15:00.018Z,79529.50
2019-03-26T10:17:29.773Z,79518.38
2019-03-26T10:19:59.606Z,79504.23
2019-03-26T10:22:29.329Z,79460.77
2019-03-26T10:24:59.458Z,79410.23
2019-03-26T10:27:29.873Z,79422.36
2019-03-26T10:30:00.000Z,79421.35
2019-03-26T10:32:30.422Z,79447.63
2019-03-26T10:35:00.427Z,79468.86
2019-03-26T10:37:30.340Z,79507.27
2019-03-26T10:40:00.376Z,79532.53
2019-03-26T10:42:30.076Z,79523.44
2019-03-26T10:45:00.329Z,79523.44
2019-03-26T10:47:31.551Z,79494.13
2019-03-26T10:50:01.310Z,79460.77
2019-03-26T10:52:34.398Z,79426.41
2019-03-26T10:55:03.939Z,79408.21
2019-03-26T10:57:33.678Z,79376.88
2019-03-26T11:00:04.363Z,79393.05
2019-03-26T11:02:34.087Z,79360.70
2019-03-26T11:05:03.826Z,79358.69
2019-03-26T11:07:35.860Z,79352.63
2019-03-26T11:10:05.901Z,79394.06
2019-03-26T11:12:35.678Z,79412.25
2019-03-26T11:15:06.796Z,79384.97
2019-03-26T11:17:36.741Z,79397.09
2019-03-26T11:20:08.115Z,79389.01
2019-03-26T11:22:37.821Z,79337.45
2019-03-26T11:25:08.059Z,79312.19
2019-03-26T11:27:37.845Z,79261.66
2019-03-26T11:30:08.462Z,79252.56
2019-03-26T11:32:38.749Z,79279.84
2019-03-26T11:35:09.805Z,79239.42
2019-03-26T11:37:39.679Z,79207.08
2019-03-26T11:40:11.017Z,79197.98
2019-03-26T11:42:41.090Z,79212.13
2019-03-26T11:45:11.048Z,79206.07
2019-03-26T11:47:41.288Z,79189.89
2019-03-26T11:50:12.153Z,79242.45
2019-03-26T11:52:41.959Z,79225.27
2019-03-26T11:55:12.430Z,79239.42
2019-03-26T11:57:42.119Z,79209.10
2019-03-26T12:00:13.095Z,79166.65
2019-03-26T12:02:44.633Z,79167.66
2019-03-26T12:05:15.272Z,79111.06
2019-03-26T12:07:45.877Z,79056.48
2019-03-26T12:10:16.071Z,79130.27
2019-03-26T12:12:45.792Z,79198.99
2019-03-26T12:15:16.045Z,79267.72
2019-03-26T12:17:46.287Z,79272.77
2019-03-26T12:20:16.108Z,79269.74
2019-03-26T12:22:46.193Z,79295.01
2019-03-26T12:25:16.031Z,79318.26
2019-03-26T12:27:46.128Z,79301.08
2019-03-26T12:30:20.058Z,79253.57
2019-03-26T12:32:49.816Z,79264.69
2019-03-26T12:35:29.541Z,79201.02
2019-03-26T12:37:59.689Z,79216.17
2019-03-26T12:40:30.112Z,79231.34
2019-03-26T12:42:59.901Z,79253.57
2019-03-26T12:45:29.613Z,79291.98
2019-03-26T12:47:59.448Z,79291.98
2019-03-26T12:50:32.056Z,79307.14
2019-03-26T12:53:01.758Z,79331.39
2019-03-26T12:55:31.453Z,79325.33
2019-03-26T12:58:01.202Z,79297.03
2019-03-26T13:00:33.864Z,79298.04
2019-03-26T13:03:03.649Z,79291.98
2019-03-26T13:05:34.088Z,79290.97
2019-03-26T13:08:05.330Z,79270.75
2019-03-26T13:10:35.270Z,79274.80
2019-03-26T13:13:05.389Z,79250.54
2019-03-26T13:15:36.580Z,79248.52
2019-03-26T13:18:07.041Z,79238.41
2019-03-26T13:20:36.786Z,79263.67
2019-03-26T13:23:09.194Z,79286.92
2019-03-26T13:25:41.128Z,79259.63
2019-03-26T13:28:10.846Z,79259.63
2019-03-26T13:30:40.675Z,79240.43
2019-03-26T13:33:10.806Z,79207.08
2019-03-26T13:35:40.510Z,79155.53
2019-03-26T13:38:10.292Z,79124.20
2019-03-26T13:40:40.589Z,79121.17
2019-03-26T13:43:10.857Z,79058.51
2019-03-26T13:45:40.572Z,79098.94
2019-03-26T13:48:11.439Z,79174.73
2019-03-26T13:50:41.174Z,79229.31
2019-03-26T13:53:10.899Z,79273.78
2019-03-26T13:55:40.705Z,79240.43
2019-03-26T13:58:10.439Z,79142.39
2019-03-26T14:00:41.068Z,79127.23
2019-03-26T14:03:10.781Z,79068.61
2019-03-26T14:05:40.505Z,79127.23
2019-03-26T14:08:10.345Z,79136.33
2019-03-26T14:10:41.613Z,79136.33
2019-03-26T14:13:11.507Z,79134.31
2019-03-26T14:15:41.367Z,79152.50
2019-03-26T14:18:11.128Z,79165.64
2019-03-26T14:20:41.081Z,79155.53
2019-03-26T14:23:10.782Z,79172.72
2019-03-26T14:25:40.836Z,79179.79
2019-03-26T14:28:10.745Z,79209.10
2019-03-26T14:30:42.486Z,79236.39
2019-03-26T14:33:12.233Z,79219.20
2019-03-26T14:35:43.475Z,79209.10
2019-03-26T14:38:13.592Z,79209.10
2019-03-26T14:40:54.125Z,79197.98
2019-03-26T14:43:14.819Z,79226.28
2019-03-26T14:45:44.525Z,79244.47
2019-03-26T14:48:14.255Z,79248.52
2019-03-26T14:50:44.285Z,79216.17
2019-03-26T14:53:14.957Z,79233.36
2019-03-26T14:55:44.754Z,79204.05
2019-03-26T14:58:14.736Z,79228.30
2019-03-26T15:00:44.448Z,79211.13
2019-03-26T15:03:14.156Z,79187.88
2019-03-26T15:05:44.052Z,79171.70
2019-03-26T15:08:15.048Z,79175.75
2019-03-26T15:10:45.164Z,79187.88
2019-03-26T15:13:14.875Z,79174.73
2019-03-26T15:15:44.629Z,79203.03
2019-03-26T15:18:14.685Z,79240.43
2019-03-26T15:20:45.857Z,79222.23
2019-03-26T15:23:15.874Z,79227.30
2019-03-26T15:25:45.624Z,79237.40
2019-03-26T15:28:15.952Z,79207.08
2019-03-26T15:30:45.644Z,79181.81
2019-03-26T15:33:15.637Z,79211.13
2019-03-26T15:35:45.364Z,79223.25
2019-03-26T15:38:15.066Z,79224.26
2019-03-26T15:40:45.157Z,79232.34
2019-03-26T15:43:14.950Z,79257.61
2019-03-26T15:45:44.722Z,79254.58
2019-03-26T15:48:14.695Z,79268.73
2019-03-26T15:50:46.223Z,79281.88
2019-03-26T15:53:16.451Z,79295.01
2019-03-26T15:55:47.379Z,79296.02
2019-03-26T15:58:17.185Z,79300.06
2019-03-26T16:00:48.598Z,79305.12
2019-03-26T16:03:22.270Z,79285.91
2019-03-26T16:05:50.871Z,79301.08
2019-03-26T16:08:21.125Z,79302.08
2019-03-26T16:10:51.455Z,79315.23
2019-03-26T16:13:21.595Z,79312.19
2019-03-26T16:15:51.958Z,79304.11
2019-03-26T16:18:21.891Z,79300.06
2019-03-26T16:20:52.418Z,79309.16
2019-03-26T16:23:22.738Z,79305.12
2019-03-26T16:25:52.441Z,79291.98
2019-03-26T16:28:22.210Z,79283.89
2019-03-26T16:30:52.307Z,79260.64
2019-03-26T16:33:23.510Z,79264.69
2019-03-26T16:35:54.067Z,79285.91
2019-03-26T16:38:23.784Z,79296.02
2019-03-26T16:40:53.509Z,79290.97
2019-03-26T16:43:24.931Z,79295.01
2019-03-26T16:45:54.785Z,79300.06
2019-03-26T16:48:24.871Z,79309.16
2019-03-26T16:50:55.095Z,79305.12
2019-03-26T16:53:25.229Z,79325.33
2019-03-26T16:55:55.363Z,79326.34
2019-03-26T16:58:26.727Z,79337.45
2019-03-26T17:00:56.516Z,79347.56
2019-03-26T17:03:31.569Z,79344.53
2019-03-26T17:05:58.680Z,79349.59
2019-03-26T17:08:28.830Z,79356.66
2019-03-26T17:10:58.607Z,79351.61
2019-03-26T17:13:28.322Z,79362.73
2019-03-26T17:15:58.365Z,79368.80
2019-03-26T17:18:28.102Z,79378.90
2019-03-26T17:20:58.075Z,79376.88
2019-03-26T17:23:27.802Z,79378.90
2019-03-26T17:25:57.505Z,79383.95
2019-03-26T17:28:27.508Z,79366.77
2019-03-26T17:30:57.530Z,79384.97
2019-03-26T17:33:29.016Z,79382.94
2019-03-26T17:35:59.542Z,79413.27
2019-03-26T17:38:29.535Z,79414.28
2019-03-26T17:40:59.420Z,79422.36
2019-03-26T17:43:29.873Z,79431.45
2019-03-26T17:45:59.626Z,79443.59
2019-03-26T17:48:29.332Z,79453.70
2019-03-26T17:50:59.076Z,79454.70
2019-03-26T17:53:28.874Z,79466.84
2019-03-26T17:55:58.575Z,79472.90
2019-03-26T17:58:28.666Z,79478.97
2019-03-26T18:00:58.997Z,79464.81
2019-03-26T18:03:29.112Z,79484.02
2019-03-26T18:05:59.187Z,79489.07
2019-03-26T18:08:28.953Z,79499.18
2019-03-26T18:10:58.659Z,79502.21
2019-03-26T18:13:28.424Z,79509.29
2019-03-26T18:15:58.266Z,79514.34
2019-03-26T18:18:28.307Z,79520.41
2019-03-26T18:20:58.344Z,79526.47
2019-03-26T18:23:28.717Z,79522.42
2019-03-26T18:25:58.881Z,79516.36
2019-03-26T18:28:29.305Z,79509.29
2019-03-26T18:30:59.105Z,79514.34
2019-03-26T18:33:28.852Z,79508.27
2019-03-26T18:35:59.026Z,79522.42
2019-03-26T18:38:29.565Z,79520.41
2019-03-26T18:40:59.450Z,79525.46
2019-03-26T18:43:29.129Z,79530.52
2019-03-26T18:46:03.706Z,79522.42
2019-03-26T18:48:33.487Z,79539.61
2019-03-26T18:51:03.210Z,79539.61
2019-03-26T18:53:33.390Z,79528.49
2019-03-26T18:56:03.167Z,79537.59
2019-03-26T18:58:33.191Z,79541.63
2019-03-26T19:01:03.537Z,79548.70
2019-03-26T19:03:33.251Z,79552.75
2019-03-26T19:06:02.927Z,79550.73
2019-03-26T19:08:32.769Z,79553.77
2019-03-26T19:11:02.800Z,79550.73
2019-03-26T19:13:32.955Z,79535.56
2019-03-26T19:16:02.921Z,79552.75
2019-03-26T19:18:32.799Z,79562.86
2019-03-26T19:21:03.003Z,79554.77
2019-03-26T19:23:32.995Z,79559.83
2019-03-26T19:26:02.886Z,79551.73
2019-03-26T19:28:32.611Z,79557.80
2019-03-26T19:31:02.814Z,79562.86
2019-03-26T19:33:32.916Z,79561.84
2019-03-26T19:36:03.279Z,79563.87
2019-03-26T19:38:34.052Z,79546.69
2019-03-26T19:41:04.348Z,79552.75
2019-03-26T19:43:34.144Z,79566.90
2019-03-26T19:46:04.721Z,79566.90
2019-03-26T19:48:34.879Z,79565.89
2019-03-26T19:51:04.970Z,79566.90
2019-03-26T19:53:34.716Z,79569.94
2019-03-26T19:56:04.980Z,79568.92
2019-03-26T19:58:35.195Z,79567.91
2019-03-26T20:01:05.617Z,79570.95
2019-03-26T20:03:35.317Z,79557.80
2019-03-26T20:06:13.467Z,79563.87
2019-03-26T20:08:36.815Z,79589.14
2019-03-26T20:11:06.502Z,79597.23
2019-03-26T20:13:38.062Z,79592.17
2019-03-26T20:16:08.548Z,79573.98
2019-03-26T20:18:38.292Z,79601.27
2019-03-26T20:21:08.082Z,79600.26
2019-03-26T20:23:37.759Z,79607.33
2019-03-26T20:26:07.742Z,79609.36
2019-03-26T20:28:37.742Z,79612.39
2019-03-26T20:31:07.473Z,79603.29
2019-03-26T20:33:37.183Z,79608.34
2019-03-26T20:36:07.331Z,79620.47
2019-03-26T20:38:37.054Z,79629.57
2019-03-26T20:41:06.884Z,79625.53
2019-03-26T20:43:37.768Z,79628.56
2019-03-26T20:46:07.976Z,79629.57
2019-03-26T20:48:37.691Z,79633.61
2019-03-26T20:51:07.399Z,79639.67
2019-03-26T20:53:37.084Z,79643.72
2019-03-26T20:56:06.972Z,79654.84
2019-03-26T20:58:37.353Z,79655.85
2019-03-26T21:01:07.063Z,79656.86
2019-03-26T21:03:36.820Z,79662.92
2019-03-26T21:06:06.502Z,79661.91
2019-03-26T21:08:36.366Z,79663.94
2019-03-26T21:11:06.052Z,79665.95
2019-03-26T21:13:36.194Z,79663.94
2019-03-26T21:16:05.895Z,79665.95
2019-03-26T21:18:35.562Z,79663.94
2019-03-26T21:21:05.777Z,79651.80
2019-03-26T21:23:35.811Z,79653.83
2019-03-26T21:26:05.841Z,79659.89
2019-03-26T21:28:35.850Z,79675.05
2019-03-26T21:31:05.627Z,79682.13
2019-03-26T21:33:35.359Z,79692.24
2019-03-26T21:36:05.657Z,79710.44
2019-03-26T21:38:35.389Z,79721.55
2019-03-26T21:41:05.074Z,79741.77
2019-03-26T21:43:35.149Z,79744.80
2019-03-26T21:46:04.865Z,79754.91
2019-03-26T21:48:34.952Z,79761.98
2019-03-26T21:51:05.071Z,79757.94
2019-03-26T21:53:35.007Z,79754.91
2019-03-26T21:56:06.844Z,79750.87
2019-03-26T21:58:37.007Z,79746.83
2019-03-26T22:01:06.740Z,79758.95
2019-03-26T22:03:37.111Z,79780.19
2019-03-26T22:06:06.878Z,79797.36
2019-03-26T22:08:36.544Z,79811.52
2019-03-26T22:11:06.557Z,79826.68
2019-03-26T22:13:36.325Z,79835.78
2019-03-26T22:16:06.388Z,79853.97
2019-03-26T22:18:36.161Z,79871.16
2019-03-26T22:21:06.319Z,79869.14
2019-03-26T22:23:36.004Z,79876.21
2019-03-26T22:26:05.897Z,79882.28
2019-03-26T22:28:35.611Z,79889.36
2019-03-26T22:31:05.956Z,79885.31
2019-03-26T22:33:36.019Z,79874.19
2019-03-26T22:36:06.071Z,79883.29
2019-03-26T22:38:35.809Z,79876.21
2019-03-26T22:41:05.540Z,79872.17
2019-03-26T22:43:35.700Z,79877.22
2019-03-26T22:46:05.443Z,79872.17
2019-03-26T22:48:35.130Z,79883.29
2019-03-26T22:51:05.229Z,79887.33
2019-03-26T22:53:34.953Z,79886.32
2019-03-26T22:56:04.666Z,79906.54
2019-03-26T22:58:34.375Z,79918.67
2019-03-26T23:01:05.300Z,79931.81
2019-03-26T23:03:35.551Z,79927.77
2019-03-26T23:06:05.308Z,79925.75
2019-03-26T23:08:35.332Z,79929.79
2019-03-26T23:11:05.279Z,79925.75
2019-03-26T23:13:35.005Z,79928.78
2019-03-26T23:16:04.944Z,79924.73
2019-03-26T23:18:35.034Z,79937.88
2019-03-26T23:21:05.148Z,79923.72
2019-03-26T23:23:35.101Z,79929.79
2019-03-26T23:26:04.914Z,79934.84
2019-03-26T23:28:35.016Z,79946.97
2019-03-26T23:31:04.722Z,79951.02
2019-03-26T23:33:34.785Z,79951.02
2019-03-26T23:36:04.684Z,79963.15
2019-03-26T23:38:34.779Z,79953.04
2019-03-26T23:41:04.846Z,79973.26
2019-03-26T23:43:35.289Z,79980.33
2019-03-26T23:46:04.997Z,79993.47
2019-03-26T23:48:34.921Z,80000.55
2019-03-26T23:51:05.170Z,79997.52
2019-03-26T23:53:35.345Z,79995.50
2019-03-26T23:56:05.281Z,79984.38
2019-03-26T23:58:35.286Z,79993.47
